createdAt,value
2022-08-11T00:03:43.268Z,100375.38
2022-08-11T00:08:51.044Z,100380.94
2022-08-11T00:13:53.929Z,100381.13
2022-08-11T00:18:59.188Z,100383.66
2022-08-11T00:24:03.451Z,100386.28
2022-08-11T00:29:11.088Z,100396.00
2022-08-11T00:34:16.196Z,100395.16
2022-08-11T00:39:28.998Z,100397.94
2022-08-11T00:45:01.589Z,100399.78
2022-08-11T00:50:37.980Z,100404.28
2022-08-11T00:56:12.473Z,100414.78
2022-08-11T01:01:18.031Z,100413.09
2022-08-11T01:06:58.068Z,100410.47
2022-08-11T01:12:06.761Z,100409.75
2022-08-11T01:17:27.226Z,100416.72
2022-08-11T01:23:07.346Z,100428.22
2022-08-11T01:28:47.407Z,100426.59
2022-08-11T01:34:11.781Z,100428.47
2022-08-11T01:39:18.542Z,100426.03
2022-08-11T01:44:39.126Z,100433.84
2022-08-11T01:50:09.373Z,100437.44
2022-08-11T01:55:16.987Z,100440.88
2022-08-11T02:00:24.074Z,100413.28
2022-08-11T02:05:29.355Z,100447.28
2022-08-11T02:11:20.107Z,100448.56
2022-08-11T02:16:24.566Z,100437.56
2022-08-11T02:22:00.758Z,100438.41
2022-08-11T02:27:18.770Z,100422.13
2022-08-11T02:32:48.047Z,100422.16
2022-08-11T02:38:14.573Z,100417.09
2022-08-11T02:43:50.864Z,100413.84
2022-08-11T02:49:24.004Z,100410.53
2022-08-11T02:54:52.353Z,100418.53
2022-08-11T03:00:07.466Z,100426.22
2022-08-11T03:05:12.156Z,100444.75
2022-08-11T03:10:17.489Z,100441.00
2022-08-11T03:15:46.339Z,100450.91
2022-08-11T03:20:59.272Z,100453.31
2022-08-11T03:26:04.367Z,100459.66
2022-08-11T03:31:34.220Z,100455.66
2022-08-11T03:37:15.036Z,100457.91
2022-08-11T03:42:36.242Z,100466.59
2022-08-11T03:47:55.305Z,100476.00
2022-08-11T03:53:28.188Z,100468.38
2022-08-11T03:58:46.657Z,100488.81
2022-08-11T04:04:04.147Z,100482.25
2022-08-11T04:09:46.790Z,100476.28
2022-08-11T04:15:32.533Z,100473.78
2022-08-11T04:21:23.485Z,100471.13
2022-08-11T04:26:56.866Z,100469.97
2022-08-11T04:32:45.758Z,100473.22
2022-08-11T04:38:08.541Z,100470.38
2022-08-11T04:44:02.129Z,100474.44
2022-08-11T04:49:57.969Z,100485.66
2022-08-11T04:55:44.937Z,100492.88
2022-08-11T05:01:37.620Z,100478.63
2022-08-11T05:07:16.669Z,100476.75
2022-08-11T05:12:44.151Z,100483.41
2022-08-11T05:18:39.662Z,100470.97
2022-08-11T05:24:09.053Z,100477.47
2022-08-11T05:29:58.793Z,100483.34
2022-08-11T05:35:05.216Z,100483.50
2022-08-11T05:40:30.687Z,100479.59
2022-08-11T05:46:03.885Z,100484.13
2022-08-11T05:51:29.901Z,100476.59
2022-08-11T05:56:35.154Z,100477.84
2022-08-11T06:01:38.059Z,100472.56
2022-08-11T06:07:10.939Z,100479.03
2022-08-11T06:12:20.343Z,100477.66
2022-08-11T06:17:39.074Z,100475.09
2022-08-11T06:22:44.559Z,100461.91
2022-08-11T06:27:58.668Z,100464.19
2022-08-11T06:33:04.377Z,100473.13
2022-08-11T06:38:32.669Z,100476.72
2022-08-11T06:44:06.898Z,100449.59
2022-08-11T06:49:30.788Z,100481.91
2022-08-11T06:54:41.457Z,100470.56
2022-08-11T07:00:04.622Z,100476.00
2022-08-11T07:05:29.155Z,100470.34
2022-08-11T07:11:11.142Z,100480.03
2022-08-11T07:16:24.346Z,100471.03
2022-08-11T07:22:01.393Z,100471.84
2022-08-11T07:27:33.605Z,100468.47
2022-08-11T07:32:48.757Z,100469.03
2022-08-11T07:38:02.594Z,100463.41
2022-08-11T07:43:07.461Z,100462.84
2022-08-11T07:48:30.597Z,100460.50
2022-08-11T07:53:34.539Z,100472.94
2022-08-11T07:59:16.067Z,100460.63
2022-08-11T08:04:39.195Z,100454.59
2022-08-11T08:10:01.969Z,100465.22
2022-08-11T08:15:29.154Z,100461.13
2022-08-11T08:20:37.329Z,100453.00
2022-08-11T08:26:28.751Z,100453.63
2022-08-11T08:31:32.322Z,100455.09
2022-08-11T08:36:35.532Z,100457.66
2022-08-11T08:41:39.409Z,100451.56
2022-08-11T08:46:46.397Z,100439.78
2022-08-11T08:52:19.558Z,100420.50
2022-08-11T08:57:20.233Z,100441.81
2022-08-11T09:02:34.295Z,100433.09
2022-08-11T09:07:40.577Z,100419.50
2022-08-11T09:12:44.131Z,100436.13
2022-08-11T09:17:50.608Z,100426.09
2022-08-11T09:28:41.771Z,100424.16
2022-08-11T09:33:45.351Z,100412.59
2022-08-11T09:39:07.389Z,100426.94
2022-08-11T09:44:29.110Z,100408.88
2022-08-11T09:49:32.630Z,100422.59
2022-08-11T09:54:36.938Z,100402.09
2022-08-11T09:59:41.415Z,100414.59
2022-08-11T10:04:46.745Z,100409.47
2022-08-11T10:09:59.062Z,100406.41
2022-08-11T10:15:26.611Z,100417.84
2022-08-11T10:20:32.524Z,100407.09
2022-08-11T10:25:55.258Z,100404.31
2022-08-11T10:31:18.125Z,100416.69
2022-08-11T10:36:21.322Z,100397.94
2022-08-11T10:42:06.597Z,100406.16
2022-08-11T10:47:27.339Z,100396.91
2022-08-11T10:52:48.680Z,100396.66
2022-08-11T10:58:09.852Z,100394.44
2022-08-11T11:03:22.851Z,100384.97
2022-08-11T11:09:08.109Z,100369.44
2022-08-11T11:14:31.625Z,100359.00
2022-08-11T11:19:40.049Z,100363.09
2022-08-11T11:25:08.758Z,100368.69
2022-08-11T11:30:15.338Z,100370.00
2022-08-11T11:35:44.752Z,100361.56
2022-08-11T11:41:08.129Z,100358.81
2022-08-11T11:46:11.318Z,100356.28
2022-08-11T11:51:14.216Z,100358.00
2022-08-11T11:56:17.564Z,100341.72
2022-08-11T12:01:24.218Z,100339.63
2022-08-11T12:06:28.090Z,100345.50
2022-08-11T12:11:50.355Z,100335.00
2022-08-11T12:16:55.005Z,100345.78
2022-08-11T12:22:17.324Z,100339.91
2022-08-11T12:27:24.272Z,100339.41
2022-08-11T12:32:32.050Z,100329.88
2022-08-11T12:37:41.475Z,100333.41
2022-08-11T12:43:20.732Z,100326.59
2022-08-11T12:48:59.794Z,100337.19
2022-08-11T12:54:14.963Z,100338.63
2022-08-11T12:59:37.004Z,100336.47
2022-08-11T13:04:54.261Z,100321.91
2022-08-11T13:09:58.141Z,100333.56
2022-08-11T13:15:02.463Z,100314.63
2022-08-11T13:20:09.110Z,100339.47
2022-08-11T13:25:16.705Z,100318.94
2022-08-11T13:30:41.209Z,100322.00
2022-08-11T13:35:49.726Z,100320.53
2022-08-11T13:40:56.613Z,100317.56
2022-08-11T13:46:18.282Z,100313.94
2022-08-11T13:51:34.827Z,100312.00
2022-08-11T13:56:44.209Z,100314.75
2022-08-11T14:02:19.972Z,100314.81
2022-08-11T14:07:19.305Z,100317.94
2022-08-11T14:12:48.262Z,100316.69
2022-08-11T14:18:07.643Z,100312.69
2022-08-11T14:23:14.483Z,100306.75
2022-08-11T14:28:31.203Z,100292.59
2022-08-11T14:34:00.684Z,100288.78
2022-08-11T14:39:04.281Z,100271.91
2022-08-11T14:44:28.017Z,100264.38
2022-08-11T14:49:38.086Z,100284.81
2022-08-11T14:55:21.215Z,100284.84
2022-08-11T15:00:24.838Z,100274.84
2022-08-11T15:05:28.618Z,100277.09
2022-08-11T15:10:31.618Z,100272.94
2022-08-11T15:15:54.182Z,100269.34
2022-08-11T15:21:15.136Z,100282.41
2022-08-11T15:26:43.059Z,100279.44
2022-08-11T15:32:06.544Z,100282.28
2022-08-11T15:37:27.170Z,100283.44
2022-08-11T15:42:50.860Z,100292.56
2022-08-11T15:48:05.089Z,100284.38
2022-08-11T15:53:20.448Z,100281.59
2022-08-11T15:58:44.871Z,100281.44
2022-08-11T16:04:13.324Z,100268.53
2022-08-11T16:09:20.365Z,100283.34
2022-08-11T16:14:43.705Z,100283.28
2022-08-11T16:19:50.202Z,100277.16
2022-08-11T16:27:06.117Z,100277.94
2022-08-11T16:30:16.102Z,100268.56
2022-08-11T16:35:45.584Z,100273.28
2022-08-11T16:40:51.246Z,100274.31
2022-08-11T16:46:14.855Z,100281.09
2022-08-11T16:51:20.922Z,100285.41
2022-08-11T16:56:28.481Z,100285.38
2022-08-11T17:01:33.285Z,100289.19
2022-08-11T17:07:00.040Z,100290.22
2022-08-11T17:12:23.392Z,100283.19
2022-08-11T17:17:34.289Z,100296.16
2022-08-11T17:22:57.469Z,100302.34
2022-08-11T17:28:03.282Z,100296.97
2022-08-11T17:33:24.667Z,100305.91
2022-08-11T17:38:28.901Z,100305.81
2022-08-11T17:43:51.342Z,100314.81
2022-08-11T17:48:54.142Z,100315.56
2022-08-11T17:54:24.001Z,100311.94
2022-08-11T17:59:49.076Z,100318.72
2022-08-11T18:04:54.413Z,100313.34
2022-08-11T18:10:16.730Z,100336.03
2022-08-11T18:15:37.972Z,100325.97
2022-08-11T18:21:10.945Z,100329.91
2022-08-11T18:26:37.473Z,100338.38
2022-08-11T18:32:06.284Z,100351.31
2022-08-11T18:37:34.058Z,100343.38
2022-08-11T18:42:57.774Z,100310.72
2022-08-11T18:48:33.186Z,100339.16
2022-08-11T18:53:59.661Z,100344.25
2022-08-11T18:59:24.673Z,100360.75
2022-08-11T19:04:47.011Z,100352.34
2022-08-11T19:10:09.760Z,100333.84
2022-08-11T19:15:32.856Z,100361.16
2022-08-11T19:20:55.938Z,100356.25
2022-08-11T19:26:19.120Z,100301.19
2022-08-11T19:31:44.652Z,100368.56
2022-08-11T19:37:07.177Z,100375.72
2022-08-11T19:42:29.437Z,100374.16
2022-08-11T19:48:03.154Z,100369.13
2022-08-11T19:53:32.864Z,100385.13
2022-08-11T19:58:56.214Z,100386.19
2022-08-11T20:04:17.575Z,100387.53
2022-08-11T20:10:05.493Z,100380.06
2022-08-11T20:15:22.362Z,100377.41
2022-08-11T20:20:46.605Z,100382.88
2022-08-11T20:26:29.773Z,100388.53
2022-08-11T20:31:51.348Z,100386.69
2022-08-11T20:37:14.225Z,100383.94
2022-08-11T20:42:39.069Z,100387.09
2022-08-11T20:48:02.873Z,100387.09
2022-08-11T20:53:26.313Z,100382.44
2022-08-11T21:04:33.081Z,100374.78
2022-08-11T21:09:58.564Z,100396.25
2022-08-11T21:15:39.092Z,100408.88
2022-08-11T21:21:09.025Z,100405.00
2022-08-11T21:26:40.669Z,100427.13
2022-08-11T21:32:03.524Z,100420.28
2022-08-11T21:37:26.299Z,100430.00
2022-08-11T21:42:51.310Z,100425.09
2022-08-11T21:48:15.002Z,100439.09
2022-08-11T21:53:38.225Z,100421.16
2022-08-11T21:59:00.124Z,100427.56
2022-08-11T22:04:29.606Z,100438.94
2022-08-11T22:09:51.168Z,100448.53
2022-08-11T22:15:13.026Z,100449.69
2022-08-11T22:20:34.121Z,100446.59
2022-08-11T22:25:59.684Z,100427.66
2022-08-11T22:31:25.279Z,100446.69
2022-08-11T22:36:47.394Z,100448.50
2022-08-11T22:42:08.673Z,100453.06
2022-08-11T22:47:40.236Z,100456.56
2022-08-11T22:53:02.267Z,100456.59
2022-08-11T22:58:25.387Z,100462.75
2022-08-11T23:03:47.694Z,100463.81
2022-08-11T23:09:09.501Z,100457.91
2022-08-11T23:14:32.502Z,100457.19
2022-08-11T23:20:06.936Z,100466.69
2022-08-11T23:25:37.002Z,100470.28
2022-08-11T23:30:59.666Z,100464.28
2022-08-11T23:36:33.994Z,100477.16
2022-08-11T23:42:03.355Z,100472.16
2022-08-11T23:47:24.870Z,100480.22
2022-08-11T23:52:46.889Z,100480.38
2022-08-11T23:58:08.398Z,100485.66
